CCT weather

CLOSED Colonia Catriel Airport
Colonia Catriel, Río Negro Province, Argentina

Public forecast

Using degrees Celsius for public forecast. Weather courtesy of forecast.io.

METAR (pilot weather report)

Closest report is Presidente Peron Airport, 64.2 nm (118.8 km) SSW. Retrieved 2019/08/20 08:00 UTC (53 minutes ago):

SAZN 200800Z 11007KT 9999 SCT025 OVC040 05/03 Q1027

TAF (pilot weather forecast)

Closest forecast is Presidente Peron Airport, 64.2 nm (118.8 km) SSW. Retrieved 2019/08/20 06:00 UTC (3 hours ago):

TAF SAZN 200500Z 2006/2106 11010KT 9999 SCT020 OVC030 TX07/2019Z TN01/2011Z BECMG 2008//2010 6000 SCT008 BKN015 BECMG 2017/2019 5000 SHRA BKN008 OVC030